sensor_id;sensor_type;location;lat;lon;timestamp;P1;durP1;ratioP1;P2;durP2;ratioP2
32894;SDS011;19251;49.484;8.260;2023-07-29T00:04:48;2.90;;;2.17;;
32894;SDS011;19251;49.484;8.260;2023-07-29T00:09:50;3.12;;;2.08;;
32894;SDS011;19251;49.484;8.260;2023-07-29T00:14:53;2.08;;;1.23;;
32894;SDS011;19251;49.484;8.260;2023-07-29T00:19:55;2.22;;;1.70;;
32894;SDS011;19251;49.484;8.260;2023-07-29T00:24:57;2.25;;;1.37;;
32894;SDS011;19251;49.484;8.260;2023-07-29T00:30:00;1.52;;;1.42;;
32894;SDS011;19251;49.484;8.260;2023-07-29T00:35:03;4.65;;;1.25;;
32894;SDS011;19251;49.484;8.260;2023-07-29T00:40:08;2.42;;;1.40;;
32894;SDS011;19251;49.484;8.260;2023-07-29T00:45:16;1.40;;;1.30;;
32894;SDS011;19251;49.484;8.260;2023-07-29T00:50:18;5.28;;;1.70;;
32894;SDS011;19251;49.484;8.260;2023-07-29T01:00:23;1.73;;;1.62;;
32894;SDS011;19251;49.484;8.260;2023-07-29T01:05:27;5.18;;;2.05;;
32894;SDS011;19251;49.484;8.260;2023-07-29T01:16:08;3.37;;;1.42;;
32894;SDS011;19251;49.484;8.260;2023-07-29T01:21:17;18.90;;;2.55;;
32894;SDS011;19251;49.484;8.260;2023-07-29T01:26:21;1.77;;;1.20;;
32894;SDS011;19251;49.484;8.260;2023-07-29T01:31:28;1.58;;;1.48;;
32894;SDS011;19251;49.484;8.260;2023-07-29T01:36:36;4.45;;;2.05;;
32894;SDS011;19251;49.484;8.260;2023-07-29T01:41:43;4.10;;;1.60;;
32894;SDS011;19251;49.484;8.260;2023-07-29T01:46:46;1.83;;;1.70;;
32894;SDS011;19251;49.484;8.260;2023-07-29T01:51:50;1.33;;;1.23;;
32894;SDS011;19251;49.484;8.260;2023-07-29T01:56:52;1.90;;;1.45;;
32894;SDS011;19251;49.484;8.260;2023-07-29T02:01:55;3.95;;;1.40;;
32894;SDS011;19251;49.484;8.260;2023-07-29T02:06:57;3.60;;;1.67;;
32894;SDS011;19251;49.484;8.260;2023-07-29T02:11:59;2.17;;;1.58;;
32894;SDS011;19251;49.484;8.260;2023-07-29T02:17:11;4.25;;;1.83;;
32894;SDS011;19251;49.484;8.260;2023-07-29T02:22:14;4.30;;;1.42;;
32894;SDS011;19251;49.484;8.260;2023-07-29T02:27:18;2.67;;;1.55;;
32894;SDS011;19251;49.484;8.260;2023-07-29T02:32:20;5.65;;;2.72;;
32894;SDS011;19251;49.484;8.260;2023-07-29T02:37:22;3.45;;;2.10;;
32894;SDS011;19251;49.484;8.260;2023-07-29T02:42:25;2.53;;;1.42;;
32894;SDS011;19251;49.484;8.260;2023-07-29T02:47:27;3.47;;;1.60;;
32894;SDS011;19251;49.484;8.260;2023-07-29T02:52:29;3.65;;;1.65;;
32894;SDS011;19251;49.484;8.260;2023-07-29T02:57:32;2.22;;;1.95;;
32894;SDS011;19251;49.484;8.260;2023-07-29T03:02:34;3.72;;;1.77;;
32894;SDS011;19251;49.484;8.260;2023-07-29T03:07:36;2.40;;;2.08;;
32894;SDS011;19251;49.484;8.260;2023-07-29T03:12:38;3.70;;;2.17;;
32894;SDS011;19251;49.484;8.260;2023-07-29T03:17:41;4.72;;;2.58;;
32894;SDS011;19251;49.484;8.260;2023-07-29T03:22:43;2.15;;;1.98;;
32894;SDS011;19251;49.484;8.260;2023-07-29T03:27:46;2.65;;;2.12;;
32894;SDS011;19251;49.484;8.260;2023-07-29T03:32:51;3.65;;;2.83;;
32894;SDS011;19251;49.484;8.260;2023-07-29T03:37:54;11.30;;;1.98;;
32894;SDS011;19251;49.484;8.260;2023-07-29T03:42:57;2.00;;;1.80;;
32894;SDS011;19251;49.484;8.260;2023-07-29T03:47:59;3.60;;;1.67;;
32894;SDS011;19251;49.484;8.260;2023-07-29T03:53:02;1.95;;;1.75;;
32894;SDS011;19251;49.484;8.260;2023-07-29T03:58:05;1.33;;;1.23;;
32894;SDS011;19251;49.484;8.260;2023-07-29T04:03:08;3.17;;;1.83;;
32894;SDS011;19251;49.484;8.260;2023-07-29T04:08:10;3.50;;;1.92;;
32894;SDS011;19251;49.484;8.260;2023-07-29T04:18:15;1.75;;;1.58;;
32894;SDS011;19251;49.484;8.260;2023-07-29T04:23:23;3.72;;;1.77;;
32894;SDS011;19251;49.484;8.260;2023-07-29T04:28:25;1.85;;;1.75;;
32894;SDS011;19251;49.484;8.260;2023-07-29T04:33:29;2.47;;;1.83;;
32894;SDS011;19251;49.484;8.260;2023-07-29T04:38:36;3.35;;;1.92;;
32894;SDS011;19251;49.484;8.260;2023-07-29T04:43:39;4.03;;;1.92;;
32894;SDS011;19251;49.484;8.260;2023-07-29T04:48:42;3.95;;;2.00;;
32894;SDS011;19251;49.484;8.260;2023-07-29T04:53:44;3.35;;;2.15;;
32894;SDS011;19251;49.484;8.260;2023-07-29T04:58:46;2.45;;;2.25;;
32894;SDS011;19251;49.484;8.260;2023-07-29T05:08:51;6.80;;;2.60;;
32894;SDS011;19251;49.484;8.260;2023-07-29T05:13:54;2.45;;;1.77;;
32894;SDS011;19251;49.484;8.260;2023-07-29T05:18:56;1.98;;;1.87;;
32894;SDS011;19251;49.484;8.260;2023-07-29T05:23:59;4.62;;;2.05;;
32894;SDS011;19251;49.484;8.260;2023-07-29T05:34:06;3.70;;;2.35;;
32894;SDS011;19251;49.484;8.260;2023-07-29T05:39:08;1.48;;;1.37;;
32894;SDS011;19251;49.484;8.260;2023-07-29T05:44:11;3.05;;;2.12;;
32894;SDS011;19251;49.484;8.260;2023-07-29T05:49:13;3.45;;;1.45;;
32894;SDS011;19251;49.484;8.260;2023-07-29T05:54:17;1.37;;;1.27;;
32894;SDS011;19251;49.484;8.260;2023-07-29T05:59:20;2.30;;;1.12;;
32894;SDS011;19251;49.484;8.260;2023-07-29T06:04:24;2.80;;;1.10;;
32894;SDS011;19251;49.484;8.260;2023-07-29T06:09:26;2.70;;;1.20;;
32894;SDS011;19251;49.484;8.260;2023-07-29T06:14:28;2.33;;;1.33;;
32894;SDS011;19251;49.484;8.260;2023-07-29T06:19:30;2.10;;;1.83;;
32894;SDS011;19251;49.484;8.260;2023-07-29T06:24:33;3.83;;;1.77;;
32894;SDS011;19251;49.484;8.260;2023-07-29T06:29:35;5.05;;;1.58;;
32894;SDS011;19251;49.484;8.260;2023-07-29T06:34:37;4.37;;;1.70;;
32894;SDS011;19251;49.484;8.260;2023-07-29T06:39:39;4.10;;;1.52;;
32894;SDS011;19251;49.484;8.260;2023-07-29T06:44:41;5.03;;;2.00;;
32894;SDS011;19251;49.484;8.260;2023-07-29T06:49:45;2.87;;;1.80;;
32894;SDS011;19251;49.484;8.260;2023-07-29T06:54:48;2.12;;;1.42;;
32894;SDS011;19251;49.484;8.260;2023-07-29T06:59:50;3.58;;;1.42;;
32894;SDS011;19251;49.484;8.260;2023-07-29T07:04:53;2.75;;;1.27;;
32894;SDS011;19251;49.484;8.260;2023-07-29T07:09:55;2.47;;;1.02;;
32894;SDS011;19251;49.484;8.260;2023-07-29T07:15:00;1.62;;;1.15;;
32894;SDS011;19251;49.484;8.260;2023-07-29T07:20:03;3.85;;;1.02;;
32894;SDS011;19251;49.484;8.260;2023-07-29T07:25:06;1.45;;;1.00;;
32894;SDS011;19251;49.484;8.260;2023-07-29T07:30:09;6.45;;;1.20;;
32894;SDS011;19251;49.484;8.260;2023-07-29T07:35:12;2.28;;;0.90;;
32894;SDS011;19251;49.484;8.260;2023-07-29T07:45:16;11.52;;;1.62;;
32894;SDS011;19251;49.484;8.260;2023-07-29T07:50:19;6.60;;;1.60;;
32894;SDS011;19251;49.484;8.260;2023-07-29T07:55:22;9.10;;;1.15;;
32894;SDS011;19251;49.484;8.260;2023-07-29T08:00:24;0.95;;;0.88;;
32894;SDS011;19251;49.484;8.260;2023-07-29T08:05:26;1.92;;;0.73;;
32894;SDS011;19251;49.484;8.260;2023-07-29T08:10:28;2.80;;;0.82;;
32894;SDS011;19251;49.484;8.260;2023-07-29T08:15:30;4.03;;;0.80;;
32894;SDS011;19251;49.484;8.260;2023-07-29T08:20:32;1.25;;;1.12;;
32894;SDS011;19251;49.484;8.260;2023-07-29T08:25:38;1.95;;;1.05;;
32894;SDS011;19251;49.484;8.260;2023-07-29T08:35:42;1.00;;;0.90;;
32894;SDS011;19251;49.484;8.260;2023-07-29T08:40:46;0.85;;;0.82;;
32894;SDS011;19251;49.484;8.260;2023-07-29T08:45:58;6.15;;;0.93;;
32894;SDS011;19251;49.484;8.260;2023-07-29T08:51:03;3.50;;;1.10;;
32894;SDS011;19251;49.484;8.260;2023-07-29T08:56:07;1.10;;;1.00;;
32894;SDS011;19251;49.484;8.260;2023-07-29T09:01:10;2.12;;;1.12;;
32894;SDS011;19251;49.484;8.260;2023-07-29T09:06:12;0.80;;;0.80;;
32894;SDS011;19251;49.484;8.260;2023-07-29T09:11:16;1.02;;;0.93;;
32894;SDS011;19251;49.484;8.260;2023-07-29T09:16:19;5.03;;;0.90;;
32894;SDS011;19251;49.484;8.260;2023-07-29T09:21:24;3.85;;;1.20;;
32894;SDS011;19251;49.484;8.260;2023-07-29T09:26:30;1.20;;;0.85;;
32894;SDS011;19251;49.484;8.260;2023-07-29T09:31:33;1.05;;;0.90;;
32894;SDS011;19251;49.484;8.260;2023-07-29T09:41:38;1.20;;;0.93;;
32894;SDS011;19251;49.484;8.260;2023-07-29T09:51:47;3.25;;;1.00;;
32894;SDS011;19251;49.484;8.260;2023-07-29T09:56:49;1.05;;;0.93;;
32894;SDS011;19251;49.484;8.260;2023-07-29T10:01:52;1.27;;;1.00;;
32894;SDS011;19251;49.484;8.260;2023-07-29T10:06:55;1.83;;;1.02;;
32894;SDS011;19251;49.484;8.260;2023-07-29T10:11:59;7.85;;;1.42;;
32894;SDS011;19251;49.484;8.260;2023-07-29T10:17:02;0.85;;;0.75;;
32894;SDS011;19251;49.484;8.260;2023-07-29T10:22:04;1.15;;;1.00;;
32894;SDS011;19251;49.484;8.260;2023-07-29T10:27:08;2.53;;;1.10;;
32894;SDS011;19251;49.484;8.260;2023-07-29T10:32:16;2.80;;;1.00;;
32894;SDS011;19251;49.484;8.260;2023-07-29T10:37:19;0.90;;;0.85;;
32894;SDS011;19251;49.484;8.260;2023-07-29T10:42:22;7.87;;;1.95;;
32894;SDS011;19251;49.484;8.260;2023-07-29T10:47:26;2.25;;;1.27;;
32894;SDS011;19251;49.484;8.260;2023-07-29T10:57:38;1.85;;;1.08;;
32894;SDS011;19251;49.484;8.260;2023-07-29T11:02:43;2.50;;;1.40;;
32894;SDS011;19251;49.484;8.260;2023-07-29T11:08:02;1.00;;;0.90;;
32894;SDS011;19251;49.484;8.260;2023-07-29T11:13:37;2.83;;;1.52;;
32894;SDS011;19251;49.484;8.260;2023-07-29T11:18:40;2.87;;;1.75;;
32894;SDS011;19251;49.484;8.260;2023-07-29T11:23:44;1.70;;;0.95;;
32894;SDS011;19251;49.484;8.260;2023-07-29T11:28:47;1.87;;;1.27;;
32894;SDS011;19251;49.484;8.260;2023-07-29T11:33:49;2.53;;;1.20;;
32894;SDS011;19251;49.484;8.260;2023-07-29T11:38:51;2.58;;;1.35;;
32894;SDS011;19251;49.484;8.260;2023-07-29T11:43:54;0.77;;;0.77;;
32894;SDS011;19251;49.484;8.260;2023-07-29T11:48:56;5.55;;;1.50;;
32894;SDS011;19251;49.484;8.260;2023-07-29T11:53:58;0.90;;;0.90;;
32894;SDS011;19251;49.484;8.260;2023-07-29T11:59:02;1.50;;;1.40;;
32894;SDS011;19251;49.484;8.260;2023-07-29T12:04:05;1.23;;;0.98;;
32894;SDS011;19251;49.484;8.260;2023-07-29T12:09:07;2.25;;;1.17;;
32894;SDS011;19251;49.484;8.260;2023-07-29T12:14:10;1.55;;;1.15;;
32894;SDS011;19251;49.484;8.260;2023-07-29T12:19:13;5.25;;;1.23;;
32894;SDS011;19251;49.484;8.260;2023-07-29T12:24:16;1.65;;;1.55;;
32894;SDS011;19251;49.484;8.260;2023-07-29T12:29:19;1.62;;;1.37;;
32894;SDS011;19251;49.484;8.260;2023-07-29T12:34:22;1.90;;;1.50;;
32894;SDS011;19251;49.484;8.260;2023-07-29T12:39:31;3.42;;;1.40;;
32894;SDS011;19251;49.484;8.260;2023-07-29T12:44:35;1.95;;;1.30;;
32894;SDS011;19251;49.484;8.260;2023-07-29T12:49:43;2.83;;;1.52;;
32894;SDS011;19251;49.484;8.260;2023-07-29T12:54:46;2.08;;;1.67;;
32894;SDS011;19251;49.484;8.260;2023-07-29T12:59:48;4.18;;;1.62;;
32894;SDS011;19251;49.484;8.260;2023-07-29T13:04:50;1.65;;;1.55;;
32894;SDS011;19251;49.484;8.260;2023-07-29T13:09:52;1.48;;;1.08;;
32894;SDS011;19251;49.484;8.260;2023-07-29T13:14:55;2.05;;;1.30;;
32894;SDS011;19251;49.484;8.260;2023-07-29T13:19:57;1.40;;;1.30;;
32894;SDS011;19251;49.484;8.260;2023-07-29T13:24:59;2.33;;;1.02;;
32894;SDS011;19251;49.484;8.260;2023-07-29T13:30:03;1.35;;;1.15;;
32894;SDS011;19251;49.484;8.260;2023-07-29T13:35:05;1.83;;;1.45;;
32894;SDS011;19251;49.484;8.260;2023-07-29T13:40:08;1.37;;;1.27;;
32894;SDS011;19251;49.484;8.260;2023-07-29T13:45:10;2.35;;;1.00;;
32894;SDS011;19251;49.484;8.260;2023-07-29T13:50:13;3.28;;;1.12;;
32894;SDS011;19251;49.484;8.260;2023-07-29T13:55:17;2.05;;;1.35;;
32894;SDS011;19251;49.484;8.260;2023-07-29T14:00:20;13.15;;;1.45;;
32894;SDS011;19251;49.484;8.260;2023-07-29T14:05:23;2.60;;;1.17;;
32894;SDS011;19251;49.484;8.260;2023-07-29T14:10:26;1.95;;;1.37;;
32894;SDS011;19251;49.484;8.260;2023-07-29T14:15:28;1.52;;;1.02;;
32894;SDS011;19251;49.484;8.260;2023-07-29T14:20:30;4.85;;;1.08;;
32894;SDS011;19251;49.484;8.260;2023-07-29T14:25:32;1.80;;;1.10;;
32894;SDS011;19251;49.484;8.260;2023-07-29T14:30:34;2.60;;;1.48;;
32894;SDS011;19251;49.484;8.260;2023-07-29T14:35:37;1.98;;;1.15;;
32894;SDS011;19251;49.484;8.260;2023-07-29T14:40:39;3.92;;;1.50;;
32894;SDS011;19251;49.484;8.260;2023-07-29T14:45:41;2.12;;;1.35;;
32894;SDS011;19251;49.484;8.260;2023-07-29T14:50:44;2.25;;;1.23;;
32894;SDS011;19251;49.484;8.260;2023-07-29T14:55:46;3.05;;;1.15;;
32894;SDS011;19251;49.484;8.260;2023-07-29T15:00:48;1.60;;;1.50;;
32894;SDS011;19251;49.484;8.260;2023-07-29T15:05:51;1.33;;;1.00;;
32894;SDS011;19251;49.484;8.260;2023-07-29T15:10:53;4.03;;;1.20;;
32894;SDS011;19251;49.484;8.260;2023-07-29T15:15:56;1.75;;;1.17;;
32894;SDS011;19251;49.484;8.260;2023-07-29T15:20:59;2.15;;;1.15;;
32894;SDS011;19251;49.484;8.260;2023-07-29T15:26:04;1.73;;;1.40;;
32894;SDS011;19251;49.484;8.260;2023-07-29T15:31:06;4.35;;;1.20;;
32894;SDS011;19251;49.484;8.260;2023-07-29T15:36:08;2.97;;;1.42;;
32894;SDS011;19251;49.484;8.260;2023-07-29T15:41:11;1.27;;;1.05;;
32894;SDS011;19251;49.484;8.260;2023-07-29T15:46:13;5.87;;;1.45;;
32894;SDS011;19251;49.484;8.260;2023-07-29T15:51:18;1.58;;;1.37;;
32894;SDS011;19251;49.484;8.260;2023-07-29T15:56:20;0.90;;;0.90;;
32894;SDS011;19251;49.484;8.260;2023-07-29T16:01:23;1.80;;;1.60;;
32894;SDS011;19251;49.484;8.260;2023-07-29T16:06:25;1.40;;;1.30;;
32894;SDS011;19251;49.484;8.260;2023-07-29T16:11:28;2.08;;;1.70;;
32894;SDS011;19251;49.484;8.260;2023-07-29T16:16:30;3.17;;;1.77;;
32894;SDS011;19251;49.484;8.260;2023-07-29T16:21:33;1.62;;;1.40;;
32894;SDS011;19251;49.484;8.260;2023-07-29T16:26:35;5.25;;;1.58;;
32894;SDS011;19251;49.484;8.260;2023-07-29T16:31:38;3.08;;;2.12;;
32894;SDS011;19251;49.484;8.260;2023-07-29T16:36:40;2.55;;;1.55;;
32894;SDS011;19251;49.484;8.260;2023-07-29T16:41:43;2.75;;;1.98;;
32894;SDS011;19251;49.484;8.260;2023-07-29T16:46:48;5.95;;;1.70;;
32894;SDS011;19251;49.484;8.260;2023-07-29T16:51:50;2.85;;;1.40;;
32894;SDS011;19251;49.484;8.260;2023-07-29T16:56:52;4.78;;;1.75;;
32894;SDS011;19251;49.484;8.260;2023-07-29T17:01:55;1.45;;;1.35;;
32894;SDS011;19251;49.484;8.260;2023-07-29T17:06:57;1.30;;;1.20;;
32894;SDS011;19251;49.484;8.260;2023-07-29T17:11:59;1.90;;;1.67;;
32894;SDS011;19251;49.484;8.260;2023-07-29T17:17:01;2.40;;;1.65;;
32894;SDS011;19251;49.484;8.260;2023-07-29T17:22:04;3.40;;;1.75;;
32894;SDS011;19251;49.484;8.260;2023-07-29T17:27:08;3.80;;;1.60;;
32894;SDS011;19251;49.484;8.260;2023-07-29T17:32:11;1.65;;;1.48;;
32894;SDS011;19251;49.484;8.260;2023-07-29T17:37:14;1.62;;;1.52;;
32894;SDS011;19251;49.484;8.260;2023-07-29T17:42:16;2.17;;;1.98;;
32894;SDS011;19251;49.484;8.260;2023-07-29T17:47:18;5.10;;;1.50;;
32894;SDS011;19251;49.484;8.260;2023-07-29T17:52:20;3.40;;;1.20;;
32894;SDS011;19251;49.484;8.260;2023-07-29T17:57:23;1.83;;;1.60;;
32894;SDS011;19251;49.484;8.260;2023-07-29T18:02:25;7.37;;;1.83;;
32894;SDS011;19251;49.484;8.260;2023-07-29T18:07:27;3.15;;;1.48;;
32894;SDS011;19251;49.484;8.260;2023-07-29T18:12:29;1.75;;;1.60;;
32894;SDS011;19251;49.484;8.260;2023-07-29T18:17:32;2.25;;;1.40;;
32894;SDS011;19251;49.484;8.260;2023-07-29T18:22:34;3.95;;;1.42;;
32894;SDS011;19251;49.484;8.260;2023-07-29T18:27:36;1.73;;;1.62;;
32894;SDS011;19251;49.484;8.260;2023-07-29T18:32:39;1.52;;;1.10;;
32894;SDS011;19251;49.484;8.260;2023-07-29T18:37:41;2.58;;;1.37;;
32894;SDS011;19251;49.484;8.260;2023-07-29T18:42:44;5.70;;;1.40;;
32894;SDS011;19251;49.484;8.260;2023-07-29T18:47:47;1.75;;;1.35;;
32894;SDS011;19251;49.484;8.260;2023-07-29T18:52:51;1.70;;;1.48;;
32894;SDS011;19251;49.484;8.260;2023-07-29T18:57:56;2.20;;;1.75;;
32894;SDS011;19251;49.484;8.260;2023-07-29T19:02:59;1.70;;;1.40;;
32894;SDS011;19251;49.484;8.260;2023-07-29T19:08:02;2.42;;;1.60;;
32894;SDS011;19251;49.484;8.260;2023-07-29T19:13:04;2.37;;;1.98;;
32894;SDS011;19251;49.484;8.260;2023-07-29T19:18:07;1.55;;;1.45;;
32894;SDS011;19251;49.484;8.260;2023-07-29T19:28:15;2.60;;;1.80;;
32894;SDS011;19251;49.484;8.260;2023-07-29T19:33:17;3.20;;;1.35;;
32894;SDS011;19251;49.484;8.260;2023-07-29T19:43:22;4.30;;;1.48;;
32894;SDS011;19251;49.484;8.260;2023-07-29T19:48:26;1.95;;;0.90;;
32894;SDS011;19251;49.484;8.260;2023-07-29T19:58:32;1.37;;;1.23;;
32894;SDS011;19251;49.484;8.260;2023-07-29T20:03:35;2.78;;;1.50;;
32894;SDS011;19251;49.484;8.260;2023-07-29T20:13:40;2.23;;;1.53;;
32894;SDS011;19251;49.484;8.260;2023-07-29T20:23:44;2.50;;;1.37;;
32894;SDS011;19251;49.484;8.260;2023-07-29T20:28:47;2.40;;;1.60;;
32894;SDS011;19251;49.484;8.260;2023-07-29T20:33:50;2.10;;;1.67;;
32894;SDS011;19251;49.484;8.260;2023-07-29T20:38:56;2.33;;;1.45;;
32894;SDS011;19251;49.484;8.260;2023-07-29T20:43:58;5.72;;;1.90;;
32894;SDS011;19251;49.484;8.260;2023-07-29T20:49:02;3.08;;;1.50;;
32894;SDS011;19251;49.484;8.260;2023-07-29T20:54:05;2.20;;;1.83;;
32894;SDS011;19251;49.484;8.260;2023-07-29T20:59:07;1.23;;;1.08;;
32894;SDS011;19251;49.484;8.260;2023-07-29T21:04:10;3.53;;;1.90;;
32894;SDS011;19251;49.484;8.260;2023-07-29T21:09:12;2.28;;;1.42;;
32894;SDS011;19251;49.484;8.260;2023-07-29T21:14:15;2.35;;;1.98;;
32894;SDS011;19251;49.484;8.260;2023-07-29T21:19:17;7.18;;;1.80;;
32894;SDS011;19251;49.484;8.260;2023-07-29T21:24:19;2.15;;;1.45;;
32894;SDS011;19251;49.484;8.260;2023-07-29T21:29:21;2.55;;;1.60;;
32894;SDS011;19251;49.484;8.260;2023-07-29T21:34:24;2.55;;;2.35;;
32894;SDS011;19251;49.484;8.260;2023-07-29T21:39:26;4.35;;;2.00;;
32894;SDS011;19251;49.484;8.260;2023-07-29T21:44:28;3.20;;;2.22;;
32894;SDS011;19251;49.484;8.260;2023-07-29T21:49:30;2.00;;;1.83;;
32894;SDS011;19251;49.484;8.260;2023-07-29T21:54:32;2.80;;;2.47;;
32894;SDS011;19251;49.484;8.260;2023-07-29T21:59:35;1.87;;;1.42;;
32894;SDS011;19251;49.484;8.260;2023-07-29T22:04:37;1.87;;;1.73;;
32894;SDS011;19251;49.484;8.260;2023-07-29T22:09:40;4.43;;;1.60;;
32894;SDS011;19251;49.484;8.260;2023-07-29T22:14:45;1.83;;;1.27;;
32894;SDS011;19251;49.484;8.260;2023-07-29T22:19:47;1.40;;;1.30;;
32894;SDS011;19251;49.484;8.260;2023-07-29T22:24:49;3.08;;;1.37;;
32894;SDS011;19251;49.484;8.260;2023-07-29T22:29:53;1.40;;;1.30;;
32894;SDS011;19251;49.484;8.260;2023-07-29T22:34:55;3.47;;;1.15;;
32894;SDS011;19251;49.484;8.260;2023-07-29T22:39:58;4.45;;;1.42;;
32894;SDS011;19251;49.484;8.260;2023-07-29T22:45:00;1.70;;;1.40;;
32894;SDS011;19251;49.484;8.260;2023-07-29T22:50:02;2.47;;;1.17;;
32894;SDS011;19251;49.484;8.260;2023-07-29T22:55:04;1.77;;;1.23;;
32894;SDS011;19251;49.484;8.260;2023-07-29T23:00:07;1.70;;;1.10;;
32894;SDS011;19251;49.484;8.260;2023-07-29T23:05:10;2.70;;;1.30;;
32894;SDS011;19251;49.484;8.260;2023-07-29T23:15:14;2.05;;;0.90;;
32894;SDS011;19251;49.484;8.260;2023-07-29T23:20:16;0.95;;;0.68;;
32894;SDS011;19251;49.484;8.260;2023-07-29T23:30:21;0.37;;;0.37;;
32894;SDS011;19251;49.484;8.260;2023-07-29T23:40:26;2.10;;;0.62;;
32894;SDS011;19251;49.484;8.260;2023-07-29T23:45:28;0.40;;;0.40;;
32894;SDS011;19251;49.484;8.260;2023-07-29T23:50:30;2.20;;;0.52;;
32894;SDS011;19251;49.484;8.260;2023-07-29T23:55:32;0.65;;;0.57;;
